sensor_id;sensor_type;location;lat;lon;timestamp;temperature;humidity
50586;DHT22;36542;51.700;8.846;2024-01-11T00:00:44;-6.10;99.90
50586;DHT22;36542;51.700;8.846;2024-01-11T00:03:09;-6.00;99.90
50586;DHT22;36542;51.700;8.846;2024-01-11T00:05:35;-5.90;99.90
50586;DHT22;36542;51.700;8.846;2024-01-11T00:08:00;-5.70;99.90
50586;DHT22;36542;51.700;8.846;2024-01-11T00:10:26;-5.60;99.90
50586;DHT22;36542;51.700;8.846;2024-01-11T00:12:51;-5.70;99.90
50586;DHT22;36542;51.700;8.846;2024-01-11T00:15:17;-5.60;99.90
50586;DHT22;36542;51.700;8.846;2024-01-11T00:17:43;-5.50;99.90
50586;DHT22;36542;51.700;8.846;2024-01-11T00:20:09;-5.20;99.90
50586;DHT22;36542;51.700;8.846;2024-01-11T00:22:34;-5.20;99.90
50586;DHT22;36542;51.700;8.846;2024-01-11T00:25:00;-5.20;99.90
50586;DHT22;36542;51.700;8.846;2024-01-11T00:27:25;-5.40;99.90
50586;DHT22;36542;51.700;8.846;2024-01-11T00:29:51;-5.60;99.90
50586;DHT22;36542;51.700;8.846;2024-01-11T00:32:16;-5.80;99.90
50586;DHT22;36542;51.700;8.846;2024-01-11T00:34:42;-6.00;99.90
50586;DHT22;36542;51.700;8.846;2024-01-11T00:37:07;-6.20;99.90
50586;DHT22;36542;51.700;8.846;2024-01-11T00:39:33;-6.40;99.90
50586;DHT22;36542;51.700;8.846;2024-01-11T00:41:58;-6.40;99.90
50586;DHT22;36542;51.700;8.846;2024-01-11T00:44:24;-6.30;99.90
50586;DHT22;36542;51.700;8.846;2024-01-11T00:46:49;-6.20;99.90
50586;DHT22;36542;51.700;8.846;2024-01-11T00:49:15;-6.20;99.90
50586;DHT22;36542;51.700;8.846;2024-01-11T00:51:40;-6.20;99.90
50586;DHT22;36542;51.700;8.846;2024-01-11T00:54:06;-6.20;99.90
50586;DHT22;36542;51.700;8.846;2024-01-11T00:56:31;-6.30;99.90
50586;DHT22;36542;51.700;8.846;2024-01-11T00:58:57;-6.30;99.90
50586;DHT22;36542;51.700;8.846;2024-01-11T01:01:22;-6.20;99.90
50586;DHT22;36542;51.700;8.846;2024-01-11T01:03:48;-6.30;99.90
50586;DHT22;36542;51.700;8.846;2024-01-11T01:06:13;-6.30;99.90
50586;DHT22;36542;51.700;8.846;2024-01-11T01:08:39;-6.30;99.90
50586;DHT22;36542;51.700;8.846;2024-01-11T01:11:04;-6.20;99.90
50586;DHT22;36542;51.700;8.846;2024-01-11T01:13:30;-6.10;99.90
50586;DHT22;36542;51.700;8.846;2024-01-11T01:15:55;-5.90;99.90
50586;DHT22;36542;51.700;8.846;2024-01-11T01:18:21;-5.80;99.90
50586;DHT22;36542;51.700;8.846;2024-01-11T01:20:46;-5.80;99.90
50586;DHT22;36542;51.700;8.846;2024-01-11T01:23:12;-5.60;99.90
50586;DHT22;36542;51.700;8.846;2024-01-11T01:25:37;-5.50;99.90
50586;DHT22;36542;51.700;8.846;2024-01-11T01:28:03;-5.40;99.90
50586;DHT22;36542;51.700;8.846;2024-01-11T01:30:29;-5.20;99.90
50586;DHT22;36542;51.700;8.846;2024-01-11T01:32:54;-5.10;99.90
50586;DHT22;36542;51.700;8.846;2024-01-11T01:35:20;-5.00;99.90
50586;DHT22;36542;51.700;8.846;2024-01-11T01:37:45;-5.00;99.90
50586;DHT22;36542;51.700;8.846;2024-01-11T01:40:11;-5.20;99.90
50586;DHT22;36542;51.700;8.846;2024-01-11T01:42:45;-5.20;99.90
50586;DHT22;36542;51.700;8.846;2024-01-11T01:45:11;-5.40;99.90
50586;DHT22;36542;51.700;8.846;2024-01-11T01:47:38;-5.40;99.90
50586;DHT22;36542;51.700;8.846;2024-01-11T01:50:05;-5.30;99.90
50586;DHT22;36542;51.700;8.846;2024-01-11T01:52:32;-5.10;99.90
50586;DHT22;36542;51.700;8.846;2024-01-11T01:54:58;-5.00;99.90
50586;DHT22;36542;51.700;8.846;2024-01-11T01:57:25;-4.80;99.90
50586;DHT22;36542;51.700;8.846;2024-01-11T01:59:51;-4.70;99.90
50586;DHT22;36542;51.700;8.846;2024-01-11T02:02:19;-4.80;99.90
50586;DHT22;36542;51.700;8.846;2024-01-11T02:04:45;-4.90;99.90
50586;DHT22;36542;51.700;8.846;2024-01-11T02:07:11;-5.00;99.90
50586;DHT22;36542;51.700;8.846;2024-01-11T02:09:37;-5.10;99.90
50586;DHT22;36542;51.700;8.846;2024-01-11T02:12:03;-5.00;99.90
50586;DHT22;36542;51.700;8.846;2024-01-11T02:14:30;-4.80;99.90
50586;DHT22;36542;51.700;8.846;2024-01-11T02:16:56;-4.70;99.90
50586;DHT22;36542;51.700;8.846;2024-01-11T02:19:22;-4.50;99.90
50586;DHT22;36542;51.700;8.846;2024-01-11T02:21:50;-4.50;99.90
50586;DHT22;36542;51.700;8.846;2024-01-11T02:24:18;-4.40;99.90
50586;DHT22;36542;51.700;8.846;2024-01-11T02:27:04;-4.30;99.90
50586;DHT22;36542;51.700;8.846;2024-01-11T02:29:30;-4.30;99.90
50586;DHT22;36542;51.700;8.846;2024-01-11T02:31:56;-4.30;99.90
50586;DHT22;36542;51.700;8.846;2024-01-11T02:34:27;-4.30;99.90
50586;DHT22;36542;51.700;8.846;2024-01-11T02:36:56;-4.40;99.90
50586;DHT22;36542;51.700;8.846;2024-01-11T02:39:23;-4.50;99.90
50586;DHT22;36542;51.700;8.846;2024-01-11T02:41:51;-4.50;99.90
50586;DHT22;36542;51.700;8.846;2024-01-11T02:44:16;-4.50;99.90
50586;DHT22;36542;51.700;8.846;2024-01-11T02:46:42;-4.50;99.90
50586;DHT22;36542;51.700;8.846;2024-01-11T02:49:08;-4.60;99.90
50586;DHT22;36542;51.700;8.846;2024-01-11T02:51:33;-4.70;99.90
50586;DHT22;36542;51.700;8.846;2024-01-11T02:53:59;-4.90;99.90
50586;DHT22;36542;51.700;8.846;2024-01-11T02:56:25;-5.20;99.90
50586;DHT22;36542;51.700;8.846;2024-01-11T02:58:50;-5.60;99.90
50586;DHT22;36542;51.700;8.846;2024-01-11T03:01:16;-5.70;99.90
50586;DHT22;36542;51.700;8.846;2024-01-11T03:03:41;-5.90;99.90
50586;DHT22;36542;51.700;8.846;2024-01-11T03:06:07;-6.00;99.90
50586;DHT22;36542;51.700;8.846;2024-01-11T03:08:33;-6.00;99.90
50586;DHT22;36542;51.700;8.846;2024-01-11T03:10:58;-6.10;99.90
50586;DHT22;36542;51.700;8.846;2024-01-11T03:13:24;-6.10;99.90
50586;DHT22;36542;51.700;8.846;2024-01-11T03:15:49;-6.10;99.90
50586;DHT22;36542;51.700;8.846;2024-01-11T03:18:14;-6.00;99.90
50586;DHT22;36542;51.700;8.846;2024-01-11T03:20:40;-5.90;99.90
50586;DHT22;36542;51.700;8.846;2024-01-11T03:23:05;-5.90;99.90
50586;DHT22;36542;51.700;8.846;2024-01-11T03:25:31;-5.90;99.90
50586;DHT22;36542;51.700;8.846;2024-01-11T03:27:58;-5.80;99.90
50586;DHT22;36542;51.700;8.846;2024-01-11T03:30:24;-5.80;99.90
50586;DHT22;36542;51.700;8.846;2024-01-11T03:32:49;-5.90;99.90
50586;DHT22;36542;51.700;8.846;2024-01-11T03:35:15;-6.10;99.90
50586;DHT22;36542;51.700;8.846;2024-01-11T03:37:40;-6.20;99.90
50586;DHT22;36542;51.700;8.846;2024-01-11T03:40:06;-6.20;99.90
50586;DHT22;36542;51.700;8.846;2024-01-11T03:42:32;-6.30;99.90
50586;DHT22;36542;51.700;8.846;2024-01-11T03:44:58;-6.20;99.90
50586;DHT22;36542;51.700;8.846;2024-01-11T03:47:23;-6.30;99.90
50586;DHT22;36542;51.700;8.846;2024-01-11T03:49:49;-6.40;99.90
50586;DHT22;36542;51.700;8.846;2024-01-11T03:52:14;-6.50;99.90
50586;DHT22;36542;51.700;8.846;2024-01-11T03:54:39;-6.50;99.90
50586;DHT22;36542;51.700;8.846;2024-01-11T03:57:05;-6.50;99.90
50586;DHT22;36542;51.700;8.846;2024-01-11T03:59:32;-6.60;99.90
50586;DHT22;36542;51.700;8.846;2024-01-11T04:01:59;-6.60;99.90
50586;DHT22;36542;51.700;8.846;2024-01-11T04:04:25;-6.50;99.90
50586;DHT22;36542;51.700;8.846;2024-01-11T04:06:51;-6.40;99.90
50586;DHT22;36542;51.700;8.846;2024-01-11T04:09:17;-6.20;99.90
50586;DHT22;36542;51.700;8.846;2024-01-11T04:11:42;-6.10;99.90
50586;DHT22;36542;51.700;8.846;2024-01-11T04:14:08;-6.20;99.90
50586;DHT22;36542;51.700;8.846;2024-01-11T04:16:33;-6.30;99.90
50586;DHT22;36542;51.700;8.846;2024-01-11T04:18:59;-6.60;99.90
50586;DHT22;36542;51.700;8.846;2024-01-11T04:21:26;-6.80;99.90
50586;DHT22;36542;51.700;8.846;2024-01-11T04:23:55;-6.80;99.90
50586;DHT22;36542;51.700;8.846;2024-01-11T04:26:21;-6.60;99.90
50586;DHT22;36542;51.700;8.846;2024-01-11T04:28:47;-6.40;99.90
50586;DHT22;36542;51.700;8.846;2024-01-11T04:31:16;-6.20;99.90
50586;DHT22;36542;51.700;8.846;2024-01-11T04:33:45;-6.10;99.90
50586;DHT22;36542;51.700;8.846;2024-01-11T04:36:11;-6.10;99.90
50586;DHT22;36542;51.700;8.846;2024-01-11T04:38:37;-6.10;99.90
50586;DHT22;36542;51.700;8.846;2024-01-11T04:41:08;-6.20;99.90
50586;DHT22;36542;51.700;8.846;2024-01-11T04:43:38;-6.20;99.90
50586;DHT22;36542;51.700;8.846;2024-01-11T04:46:19;-6.00;99.90
50586;DHT22;36542;51.700;8.846;2024-01-11T04:48:45;-6.00;99.90
50586;DHT22;36542;51.700;8.846;2024-01-11T04:51:15;-6.20;99.90
50586;DHT22;36542;51.700;8.846;2024-01-11T04:53:41;-6.80;99.90
50586;DHT22;36542;51.700;8.846;2024-01-11T04:56:08;-7.20;99.90
50586;DHT22;36542;51.700;8.846;2024-01-11T04:58:34;-7.20;99.90
50586;DHT22;36542;51.700;8.846;2024-01-11T05:01:00;-7.30;99.90
50586;DHT22;36542;51.700;8.846;2024-01-11T05:03:25;-7.40;99.90
50586;DHT22;36542;51.700;8.846;2024-01-11T05:05:51;-7.50;99.90
50586;DHT22;36542;51.700;8.846;2024-01-11T05:08:17;-7.60;99.90
50586;DHT22;36542;51.700;8.846;2024-01-11T05:10:42;-7.50;99.90
50586;DHT22;36542;51.700;8.846;2024-01-11T05:13:08;-7.30;99.90
50586;DHT22;36542;51.700;8.846;2024-01-11T05:15:34;-7.10;99.90
50586;DHT22;36542;51.700;8.846;2024-01-11T05:18:00;-7.00;99.90
50586;DHT22;36542;51.700;8.846;2024-01-11T05:20:25;-7.00;99.90
50586;DHT22;36542;51.700;8.846;2024-01-11T05:22:51;-7.00;99.90
50586;DHT22;36542;51.700;8.846;2024-01-11T05:25:16;-6.90;99.90
50586;DHT22;36542;51.700;8.846;2024-01-11T05:27:42;-6.90;99.90
50586;DHT22;36542;51.700;8.846;2024-01-11T05:30:08;-6.90;99.90
50586;DHT22;36542;51.700;8.846;2024-01-11T05:32:33;-6.90;99.90
50586;DHT22;36542;51.700;8.846;2024-01-11T05:34:59;-6.90;99.90
50586;DHT22;36542;51.700;8.846;2024-01-11T05:37:24;-6.90;99.90
50586;DHT22;36542;51.700;8.846;2024-01-11T05:39:51;-6.90;99.90
50586;DHT22;36542;51.700;8.846;2024-01-11T05:42:17;-6.70;99.90
50586;DHT22;36542;51.700;8.846;2024-01-11T05:44:43;-6.60;99.90
50586;DHT22;36542;51.700;8.846;2024-01-11T05:47:09;-6.50;99.90
50586;DHT22;36542;51.700;8.846;2024-01-11T05:49:34;-6.40;99.90
50586;DHT22;36542;51.700;8.846;2024-01-11T05:52:00;-6.20;99.90
50586;DHT22;36542;51.700;8.846;2024-01-11T05:54:25;-5.80;99.90
50586;DHT22;36542;51.700;8.846;2024-01-11T05:56:53;-5.40;99.90
50586;DHT22;36542;51.700;8.846;2024-01-11T05:59:21;-5.00;99.90
50586;DHT22;36542;51.700;8.846;2024-01-11T06:01:47;-5.10;99.90
50586;DHT22;36542;51.700;8.846;2024-01-11T06:04:13;-5.50;99.90
50586;DHT22;36542;51.700;8.846;2024-01-11T06:06:39;-5.70;99.90
50586;DHT22;36542;51.700;8.846;2024-01-11T06:09:05;-5.90;99.90
50586;DHT22;36542;51.700;8.846;2024-01-11T06:11:30;-6.20;99.90
50586;DHT22;36542;51.700;8.846;2024-01-11T06:13:56;-6.40;99.90
50586;DHT22;36542;51.700;8.846;2024-01-11T06:16:22;-6.50;99.90
50586;DHT22;36542;51.700;8.846;2024-01-11T06:18:48;-6.60;99.90
50586;DHT22;36542;51.700;8.846;2024-01-11T06:21:13;-6.70;99.90
50586;DHT22;36542;51.700;8.846;2024-01-11T06:23:40;-6.80;99.90
50586;DHT22;36542;51.700;8.846;2024-01-11T06:26:07;-6.70;99.90
50586;DHT22;36542;51.700;8.846;2024-01-11T06:28:33;-6.60;99.90
50586;DHT22;36542;51.700;8.846;2024-01-11T06:30:58;-6.60;99.90
50586;DHT22;36542;51.700;8.846;2024-01-11T06:33:24;-6.50;99.90
50586;DHT22;36542;51.700;8.846;2024-01-11T06:35:49;-6.60;99.90
50586;DHT22;36542;51.700;8.846;2024-01-11T06:38:15;-6.70;99.90
50586;DHT22;36542;51.700;8.846;2024-01-11T06:40:41;-6.60;99.90
50586;DHT22;36542;51.700;8.846;2024-01-11T06:43:06;-6.50;99.90
50586;DHT22;36542;51.700;8.846;2024-01-11T06:45:32;-6.40;99.90
50586;DHT22;36542;51.700;8.846;2024-01-11T06:47:57;-6.40;99.90
50586;DHT22;36542;51.700;8.846;2024-01-11T06:50:23;-6.50;99.90
50586;DHT22;36542;51.700;8.846;2024-01-11T06:52:48;-6.60;99.90
50586;DHT22;36542;51.700;8.846;2024-01-11T06:55:14;-6.80;99.90
50586;DHT22;36542;51.700;8.846;2024-01-11T06:57:39;-6.90;99.90
50586;DHT22;36542;51.700;8.846;2024-01-11T07:00:06;-6.90;99.90
50586;DHT22;36542;51.700;8.846;2024-01-11T07:02:32;-6.90;99.90
50586;DHT22;36542;51.700;8.846;2024-01-11T07:04:58;-7.00;99.90
50586;DHT22;36542;51.700;8.846;2024-01-11T07:07:23;-7.00;99.90
50586;DHT22;36542;51.700;8.846;2024-01-11T07:09:49;-7.10;99.90
50586;DHT22;36542;51.700;8.846;2024-01-11T07:12:14;-7.10;99.90
50586;DHT22;36542;51.700;8.846;2024-01-11T07:14:40;-7.20;99.90
50586;DHT22;36542;51.700;8.846;2024-01-11T07:17:05;-7.10;99.90
50586;DHT22;36542;51.700;8.846;2024-01-11T07:19:31;-7.00;99.90
50586;DHT22;36542;51.700;8.846;2024-01-11T07:21:56;-7.00;99.90
50586;DHT22;36542;51.700;8.846;2024-01-11T07:24:22;-6.90;99.90
50586;DHT22;36542;51.700;8.846;2024-01-11T07:26:47;-6.70;99.90
50586;DHT22;36542;51.700;8.846;2024-01-11T07:29:13;-6.50;99.90
50586;DHT22;36542;51.700;8.846;2024-01-11T07:31:39;-6.10;99.90
50586;DHT22;36542;51.700;8.846;2024-01-11T07:34:04;-5.90;99.90
50586;DHT22;36542;51.700;8.846;2024-01-11T07:36:30;-5.80;99.90
50586;DHT22;36542;51.700;8.846;2024-01-11T07:38:56;-5.70;99.90
50586;DHT22;36542;51.700;8.846;2024-01-11T07:41:22;-5.70;99.90
50586;DHT22;36542;51.700;8.846;2024-01-11T07:43:48;-5.60;99.90
50586;DHT22;36542;51.700;8.846;2024-01-11T07:46:13;-5.60;99.90
50586;DHT22;36542;51.700;8.846;2024-01-11T07:48:39;-5.50;99.90
50586;DHT22;36542;51.700;8.846;2024-01-11T07:51:04;-5.70;99.90
50586;DHT22;36542;51.700;8.846;2024-01-11T07:53:30;-6.10;99.90
50586;DHT22;36542;51.700;8.846;2024-01-11T07:55:57;-6.40;99.90
50586;DHT22;36542;51.700;8.846;2024-01-11T07:58:23;-6.60;99.90
50586;DHT22;36542;51.700;8.846;2024-01-11T08:00:48;-6.70;99.90
50586;DHT22;36542;51.700;8.846;2024-01-11T08:03:14;-6.80;99.90
50586;DHT22;36542;51.700;8.846;2024-01-11T08:05:40;-6.80;99.90
50586;DHT22;36542;51.700;8.846;2024-01-11T08:08:05;-6.70;99.90
50586;DHT22;36542;51.700;8.846;2024-01-11T08:10:31;-6.60;99.90
50586;DHT22;36542;51.700;8.846;2024-01-11T08:12:57;-6.70;99.90
50586;DHT22;36542;51.700;8.846;2024-01-11T08:15:22;-6.80;99.90
50586;DHT22;36542;51.700;8.846;2024-01-11T08:17:48;-6.80;99.90
50586;DHT22;36542;51.700;8.846;2024-01-11T08:20:14;-6.60;99.90
50586;DHT22;36542;51.700;8.846;2024-01-11T08:22:41;-6.20;99.90
50586;DHT22;36542;51.700;8.846;2024-01-11T08:25:06;-5.60;99.90
50586;DHT22;36542;51.700;8.846;2024-01-11T08:27:32;-5.00;99.90
50586;DHT22;36542;51.700;8.846;2024-01-11T08:29:58;-4.50;99.90
50586;DHT22;36542;51.700;8.846;2024-01-11T08:32:25;-3.70;99.90
50586;DHT22;36542;51.700;8.846;2024-01-11T08:34:51;-3.00;99.90
50586;DHT22;36542;51.700;8.846;2024-01-11T08:37:16;-2.10;99.90
50586;DHT22;36542;51.700;8.846;2024-01-11T08:39:42;-1.50;99.90
50586;DHT22;36542;51.700;8.846;2024-01-11T08:42:07;0.00;99.90
50586;DHT22;36542;51.700;8.846;2024-01-11T08:44:33;1.00;99.90
50586;DHT22;36542;51.700;8.846;2024-01-11T08:46:58;1.80;99.90
50586;DHT22;36542;51.700;8.846;2024-01-11T08:49:25;2.00;99.90
50586;DHT22;36542;51.700;8.846;2024-01-11T08:51:50;2.10;99.90
50586;DHT22;36542;51.700;8.846;2024-01-11T08:54:16;3.00;99.90
50586;DHT22;36542;51.700;8.846;2024-01-11T08:56:42;2.50;99.90
50586;DHT22;36542;51.700;8.846;2024-01-11T08:59:08;2.70;99.90
50586;DHT22;36542;51.700;8.846;2024-01-11T09:01:37;3.10;99.90
50586;DHT22;36542;51.700;8.846;2024-01-11T09:04:03;3.40;99.90
50586;DHT22;36542;51.700;8.846;2024-01-11T09:06:29;4.30;99.90
50586;DHT22;36542;51.700;8.846;2024-01-11T09:08:54;5.50;99.90
50586;DHT22;36542;51.700;8.846;2024-01-11T09:11:20;5.20;99.90
50586;DHT22;36542;51.700;8.846;2024-01-11T09:13:45;5.20;99.90
50586;DHT22;36542;51.700;8.846;2024-01-11T09:16:15;4.60;99.90
50586;DHT22;36542;51.700;8.846;2024-01-11T09:18:41;3.80;99.90
50586;DHT22;36542;51.700;8.846;2024-01-11T09:21:07;3.50;99.90
50586;DHT22;36542;51.700;8.846;2024-01-11T09:23:33;3.40;99.90
50586;DHT22;36542;51.700;8.846;2024-01-11T09:25:59;3.30;99.90
50586;DHT22;36542;51.700;8.846;2024-01-11T09:28:25;3.00;99.90
50586;DHT22;36542;51.700;8.846;2024-01-11T09:30:50;3.00;99.90
50586;DHT22;36542;51.700;8.846;2024-01-11T09:33:16;3.20;99.90
50586;DHT22;36542;51.700;8.846;2024-01-11T09:35:41;2.50;99.90
50586;DHT22;36542;51.700;8.846;2024-01-11T09:38:07;2.20;99.90
50586;DHT22;36542;51.700;8.846;2024-01-11T09:40:32;2.30;99.90
50586;DHT22;36542;51.700;8.846;2024-01-11T09:42:58;2.40;99.90
50586;DHT22;36542;51.700;8.846;2024-01-11T09:45:24;3.00;99.90
50586;DHT22;36542;51.700;8.846;2024-01-11T09:47:51;3.50;99.90
50586;DHT22;36542;51.700;8.846;2024-01-11T09:50:18;3.00;99.90
50586;DHT22;36542;51.700;8.846;2024-01-11T09:52:50;3.20;99.90
50586;DHT22;36542;51.700;8.846;2024-01-11T09:55:16;5.30;99.90
50586;DHT22;36542;51.700;8.846;2024-01-11T09:57:47;4.20;99.90
50586;DHT22;36542;51.700;8.846;2024-01-11T10:00:16;3.80;99.90
50586;DHT22;36542;51.700;8.846;2024-01-11T10:02:41;3.50;99.90
50586;DHT22;36542;51.700;8.846;2024-01-11T10:05:07;3.30;99.90
50586;DHT22;36542;51.700;8.846;2024-01-11T10:07:34;3.50;99.90
50586;DHT22;36542;51.700;8.846;2024-01-11T10:10:00;3.60;99.90
50586;DHT22;36542;51.700;8.846;2024-01-11T10:12:27;3.60;99.90
50586;DHT22;36542;51.700;8.846;2024-01-11T10:14:53;3.60;99.90
50586;DHT22;36542;51.700;8.846;2024-01-11T10:17:20;3.10;99.90
50586;DHT22;36542;51.700;8.846;2024-01-11T10:19:45;3.10;99.90
50586;DHT22;36542;51.700;8.846;2024-01-11T10:22:11;3.00;99.90
50586;DHT22;36542;51.700;8.846;2024-01-11T10:24:39;2.50;99.90
50586;DHT22;36542;51.700;8.846;2024-01-11T10:27:04;2.90;99.90
50586;DHT22;36542;51.700;8.846;2024-01-11T10:29:33;2.90;99.90
50586;DHT22;36542;51.700;8.846;2024-01-11T10:32:03;2.90;99.90
50586;DHT22;36542;51.700;8.846;2024-01-11T10:34:28;3.10;99.90
50586;DHT22;36542;51.700;8.846;2024-01-11T10:36:54;2.80;99.90
50586;DHT22;36542;51.700;8.846;2024-01-11T10:39:27;2.70;99.90
50586;DHT22;36542;51.700;8.846;2024-01-11T10:42:05;2.20;99.90
50586;DHT22;36542;51.700;8.846;2024-01-11T10:44:33;2.20;99.90
50586;DHT22;36542;51.700;8.846;2024-01-11T10:46:59;2.10;99.90
50586;DHT22;36542;51.700;8.846;2024-01-11T10:49:27;2.00;99.90
50586;DHT22;36542;51.700;8.846;2024-01-11T10:52:02;2.10;99.90
50586;DHT22;36542;51.700;8.846;2024-01-11T10:54:28;2.10;99.90
50586;DHT22;36542;51.700;8.846;2024-01-11T10:56:56;2.30;99.90
50586;DHT22;36542;51.700;8.846;2024-01-11T10:59:26;2.50;99.90
50586;DHT22;36542;51.700;8.846;2024-01-11T11:01:57;2.40;99.90
50586;DHT22;36542;51.700;8.846;2024-01-11T11:04:24;2.40;99.90
50586;DHT22;36542;51.700;8.846;2024-01-11T11:06:55;2.20;99.90
50586;DHT22;36542;51.700;8.846;2024-01-11T11:09:25;1.80;99.90
50586;DHT22;36542;51.700;8.846;2024-01-11T11:11:53;1.50;99.90
50586;DHT22;36542;51.700;8.846;2024-01-11T11:14:22;1.20;99.90
50586;DHT22;36542;51.700;8.846;2024-01-11T11:16:48;0.90;99.90
50586;DHT22;36542;51.700;8.846;2024-01-11T11:19:14;0.40;99.90
50586;DHT22;36542;51.700;8.846;2024-01-11T11:21:43;-0.20;99.90
50586;DHT22;36542;51.700;8.846;2024-01-11T11:24:10;-0.80;99.90
50586;DHT22;36542;51.700;8.846;2024-01-11T11:26:36;-0.90;99.90
50586;DHT22;36542;51.700;8.846;2024-01-11T11:29:03;-1.00;99.90
50586;DHT22;36542;51.700;8.846;2024-01-11T11:31:58;-1.00;99.90
50586;DHT22;36542;51.700;8.846;2024-01-11T11:34:43;-1.30;99.90
50586;DHT22;36542;51.700;8.846;2024-01-11T11:37:12;-1.40;99.90
50586;DHT22;36542;51.700;8.846;2024-01-11T11:39:38;-1.40;99.90
50586;DHT22;36542;51.700;8.846;2024-01-11T11:42:06;-1.50;99.90
50586;DHT22;36542;51.700;8.846;2024-01-11T11:44:33;-1.50;99.90
50586;DHT22;36542;51.700;8.846;2024-01-11T11:47:21;-1.60;99.90
50586;DHT22;36542;51.700;8.846;2024-01-11T11:52:24;-1.50;99.90
50586;DHT22;36542;51.700;8.846;2024-01-11T11:54:50;-1.60;99.90
50586;DHT22;36542;51.700;8.846;2024-01-11T11:57:16;-1.60;99.90
50586;DHT22;36542;51.700;8.846;2024-01-11T11:59:43;-1.70;99.90
50586;DHT22;36542;51.700;8.846;2024-01-11T12:02:16;-1.80;99.90
50586;DHT22;36542;51.700;8.846;2024-01-11T12:04:46;-1.90;99.90
50586;DHT22;36542;51.700;8.846;2024-01-11T12:07:12;-1.90;99.90
50586;DHT22;36542;51.700;8.846;2024-01-11T12:09:38;-1.90;99.90
50586;DHT22;36542;51.700;8.846;2024-01-11T12:12:04;-1.90;99.90
50586;DHT22;36542;51.700;8.846;2024-01-11T12:14:29;-1.80;99.90
50586;DHT22;36542;51.700;8.846;2024-01-11T12:16:59;-1.80;99.90
50586;DHT22;36542;51.700;8.846;2024-01-11T12:19:25;-1.80;99.90
50586;DHT22;36542;51.700;8.846;2024-01-11T12:21:50;-1.70;99.90
50586;DHT22;36542;51.700;8.846;2024-01-11T12:24:16;-1.70;99.90
50586;DHT22;36542;51.700;8.846;2024-01-11T12:26:43;-1.70;99.90
50586;DHT22;36542;51.700;8.846;2024-01-11T12:29:09;-1.60;99.90
50586;DHT22;36542;51.700;8.846;2024-01-11T12:31:35;-1.70;99.90
50586;DHT22;36542;51.700;8.846;2024-01-11T12:34:01;-1.60;99.90
50586;DHT22;36542;51.700;8.846;2024-01-11T12:36:28;-1.50;99.90
50586;DHT22;36542;51.700;8.846;2024-01-11T12:38:54;-1.50;99.90
50586;DHT22;36542;51.700;8.846;2024-01-11T12:41:23;-1.40;99.90
50586;DHT22;36542;51.700;8.846;2024-01-11T12:43:49;-1.30;99.90
50586;DHT22;36542;51.700;8.846;2024-01-11T12:46:20;-1.30;99.90
50586;DHT22;36542;51.700;8.846;2024-01-11T12:49:09;-1.00;99.90
50586;DHT22;36542;51.700;8.846;2024-01-11T12:51:57;-1.00;99.90
50586;DHT22;36542;51.700;8.846;2024-01-11T12:54:43;-1.00;99.90
50586;DHT22;36542;51.700;8.846;2024-01-11T12:57:12;-0.90;99.90
50586;DHT22;36542;51.700;8.846;2024-01-11T12:59:40;-0.90;99.90
50586;DHT22;36542;51.700;8.846;2024-01-11T13:02:09;-0.80;99.90
50586;DHT22;36542;51.700;8.846;2024-01-11T13:04:38;-0.80;99.90
50586;DHT22;36542;51.700;8.846;2024-01-11T13:07:21;-0.70;99.90
50586;DHT22;36542;51.700;8.846;2024-01-11T13:10:10;-0.50;99.90
50586;DHT22;36542;51.700;8.846;2024-01-11T13:12:45;-0.40;99.90
50586;DHT22;36542;51.700;8.846;2024-01-11T13:15:11;-0.30;99.90
50586;DHT22;36542;51.700;8.846;2024-01-11T13:17:44;-0.20;99.90
50586;DHT22;36542;51.700;8.846;2024-01-11T13:20:09;-0.30;99.90
50586;DHT22;36542;51.700;8.846;2024-01-11T13:22:48;-0.20;99.90
50586;DHT22;36542;51.700;8.846;2024-01-11T13:25:18;-0.30;99.90
50586;DHT22;36542;51.700;8.846;2024-01-11T13:31:22;-0.30;99.90
50586;DHT22;36542;51.700;8.846;2024-01-11T13:33:48;-0.20;99.90
50586;DHT22;36542;51.700;8.846;2024-01-11T13:36:24;-0.20;99.90
50586;DHT22;36542;51.700;8.846;2024-01-11T13:39:06;-0.20;99.90
50586;DHT22;36542;51.700;8.846;2024-01-11T13:44:23;-0.20;99.90
50586;DHT22;36542;51.700;8.846;2024-01-11T13:46:51;-0.10;99.90
50586;DHT22;36542;51.700;8.846;2024-01-11T13:49:24;-0.20;99.90
50586;DHT22;36542;51.700;8.846;2024-01-11T13:52:09;-0.30;99.90
50586;DHT22;36542;51.700;8.846;2024-01-11T13:54:35;-0.40;99.90
50586;DHT22;36542;51.700;8.846;2024-01-11T13:57:03;-0.40;99.90
50586;DHT22;36542;51.700;8.846;2024-01-11T13:59:38;-0.40;99.90
50586;DHT22;36542;51.700;8.846;2024-01-11T14:02:13;-0.40;99.90
50586;DHT22;36542;51.700;8.846;2024-01-11T14:04:46;-0.40;99.90
50586;DHT22;36542;51.700;8.846;2024-01-11T14:13:09;-0.50;99.90
50586;DHT22;36542;51.700;8.846;2024-01-11T14:15:35;-0.50;99.90
50586;DHT22;36542;51.700;8.846;2024-01-11T14:18:09;-0.50;99.90
50586;DHT22;36542;51.700;8.846;2024-01-11T14:20:35;-0.50;99.90
50586;DHT22;36542;51.700;8.846;2024-01-11T14:23:19;-0.50;99.90
50586;DHT22;36542;51.700;8.846;2024-01-11T14:25:50;-0.50;99.90
50586;DHT22;36542;51.700;8.846;2024-01-11T14:28:25;-0.60;99.90
50586;DHT22;36542;51.700;8.846;2024-01-11T14:31:08;-0.60;99.90
50586;DHT22;36542;51.700;8.846;2024-01-11T14:36:18;-0.70;99.90
50586;DHT22;36542;51.700;8.846;2024-01-11T14:38:44;-0.70;99.90
50586;DHT22;36542;51.700;8.846;2024-01-11T14:41:09;-0.70;99.90
50586;DHT22;36542;51.700;8.846;2024-01-11T14:43:53;-0.70;99.90
50586;DHT22;36542;51.700;8.846;2024-01-11T14:46:22;-0.70;99.90
50586;DHT22;36542;51.700;8.846;2024-01-11T14:48:55;-0.70;99.90
50586;DHT22;36542;51.700;8.846;2024-01-11T14:51:32;-0.70;99.90
50586;DHT22;36542;51.700;8.846;2024-01-11T14:54:41;-0.80;99.90
50586;DHT22;36542;51.700;8.846;2024-01-11T14:57:59;-0.70;99.90
50586;DHT22;36542;51.700;8.846;2024-01-11T15:04:00;-0.80;99.90
50586;DHT22;36542;51.700;8.846;2024-01-11T15:06:34;-0.90;99.90
50586;DHT22;36542;51.700;8.846;2024-01-11T15:12:35;-0.90;99.90
50586;DHT22;36542;51.700;8.846;2024-01-11T15:15:03;-0.90;99.90
50586;DHT22;36542;51.700;8.846;2024-01-11T15:17:31;-1.00;99.90
50586;DHT22;36542;51.700;8.846;2024-01-11T15:20:00;-1.00;99.90
50586;DHT22;36542;51.700;8.846;2024-01-11T15:22:53;-1.00;99.90
50586;DHT22;36542;51.700;8.846;2024-01-11T15:25:33;-1.00;99.90
50586;DHT22;36542;51.700;8.846;2024-01-11T15:27:58;-1.00;99.90
50586;DHT22;36542;51.700;8.846;2024-01-11T15:30:26;-1.10;99.90
50586;DHT22;36542;51.700;8.846;2024-01-11T15:39:11;-1.20;99.90
50586;DHT22;36542;51.700;8.846;2024-01-11T15:41:45;-1.20;99.90
50586;DHT22;36542;51.700;8.846;2024-01-11T15:47:46;-1.20;99.90
50586;DHT22;36542;51.700;8.846;2024-01-11T15:50:21;-1.20;99.90
50586;DHT22;36542;51.700;8.846;2024-01-11T15:52:58;-1.20;99.90
50586;DHT22;36542;51.700;8.846;2024-01-11T15:55:44;-1.20;99.90
50586;DHT22;36542;51.700;8.846;2024-01-11T15:58:10;-1.20;99.90
50586;DHT22;36542;51.700;8.846;2024-01-11T16:01:10;-1.20;99.90
50586;DHT22;36542;51.700;8.846;2024-01-11T16:06:36;-1.30;99.90
50586;DHT22;36542;51.700;8.846;2024-01-11T16:09:07;-1.30;99.90
50586;DHT22;36542;51.700;8.846;2024-01-11T16:11:34;-1.30;99.90
50586;DHT22;36542;51.700;8.846;2024-01-11T16:14:00;-1.30;99.90